^^
TXWeather Station Historical Data
Daily Summary for February 12, 2022 Units:  English    Metric   Both
Daily Weekly Monthly Yearly Custom
  High: Low: Average:
Temperature: 57.0 °F 36.0 °F 48.3 °F
Dew Point: 53.0 °F 24.0 °F 42.1 °F
Humidity: 91% 59% 79%
Wind Speed: 26mph 0mph 10.1mph
Wind Gust: 30mph - -
Wind- - SW
Pressure: 30.5 in 30.0 in -
Precipitation: 0.120 in    
Historical Graphs
 
 
Tabular Data for February 12, 2022
Time Temperature Dew Point Pressure Wind Wind Speed Wind Gust Humidity Rainfall Rate (Hourly) solar
00:04 55.0 °F 50.0 °F 30.0 in Calm     83% 0.000 in 0.00 W/m2
00:09 55.0 °F 50.0 °F 30.0 in Calm     83% 0.000 in 0.00 W/m2
00:14 55.0 °F 50.0 °F 30.0 in Calm     83% 0.000 in 0.00 W/m2
00:19 55.0 °F 50.0 °F 30.0 in Calm     83% 0.000 in 0.00 W/m2
00:24 54.0 °F 49.0 °F 30.0 in Calm     83% 0.000 in 0.00 W/m2
00:29 54.0 °F 50.0 °F 30.0 in Calm     84% 0.000 in 0.00 W/m2
00:34 54.0 °F 50.0 °F 30.1 in SSE 1 mph 1 mph 84% 0.000 in 0.00 W/m2
00:39 54.0 °F 49.0 °F 30.1 in Calm     84% 0.000 in 0.00 W/m2
00:44 54.0 °F 49.0 °F 30.1 in Calm     84% 0.000 in 0.00 W/m2
00:49 54.0 °F 49.0 °F 30.1 in Calm     84% 0.000 in 0.00 W/m2
00:54 54.0 °F 49.0 °F 30.1 in Calm     84% 0.000 in 0.00 W/m2
00:59 53.0 °F 49.0 °F 30.1 in SSE 1 mph 1 mph 85% 0.000 in 0.00 W/m2
01:04 53.0 °F 49.0 °F 30.1 in SSE 2 mph 2 mph 85% 0.000 in 0.00 W/m2
01:09 53.0 °F 49.0 °F 30.1 in SSE 1 mph 2 mph 85% 0.000 in 0.00 W/m2
01:14 53.0 °F 49.0 °F 30.1 in Calm   1 mph 85% 0.000 in 0.00 W/m2
01:19 53.0 °F 49.0 °F 30.1 in SSE 1 mph 1 mph 85% 0.000 in 0.00 W/m2
01:24 53.0 °F 48.0 °F 30.1 in SSE 1 mph 1 mph 85% 0.000 in 0.00 W/m2
01:29 53.0 °F 48.0 °F 30.1 in Calm     85% 0.000 in 0.00 W/m2
01:34 52.0 °F 48.0 °F 30.1 in Calm   1 mph 85% 0.000 in 0.00 W/m2
01:39 52.0 °F 48.0 °F 30.1 in SSE 1 mph 2 mph 85% 0.000 in 0.00 W/m2
01:44 52.0 °F 48.0 °F 30.1 in SSE 2 mph 2 mph 85% 0.000 in 0.00 W/m2
01:49 52.0 °F 48.0 °F 30.1 in SSE 1 mph 2 mph 85% 0.000 in 0.00 W/m2
01:54 52.0 °F 48.0 °F 30.1 in SSE 1 mph 1 mph 86% 0.000 in 0.00 W/m2
01:59 52.0 °F 48.0 °F 30.1 in SSE 2 mph 2 mph 86% 0.000 in 0.00 W/m2
02:04 52.0 °F 48.0 °F 30.1 in SSE 2 mph 2 mph 86% 0.000 in 0.00 W/m2
02:09 52.0 °F 48.0 °F 30.1 in SSE 2 mph 2 mph 86% 0.000 in 0.00 W/m2
02:14 52.0 °F 48.0 °F 30.1 in Calm     86% 0.000 in 0.00 W/m2
02:19 52.0 °F 48.0 °F 30.1 in SSE 1 mph 1 mph 86% 0.000 in 0.00 W/m2
02:24 51.0 °F 48.0 °F 30.1 in SSE 1 mph 1 mph 86% 0.000 in 0.00 W/m2
02:29 51.0 °F 48.0 °F 30.1 in SSE 1 mph 1 mph 86% 0.000 in 0.00 W/m2
02:34 51.0 °F 47.0 °F 30.1 in SSE 1 mph 1 mph 86% 0.000 in 0.00 W/m2
02:39 51.0 °F 47.0 °F 30.1 in SSE 1 mph 1 mph 86% 0.000 in 0.00 W/m2
02:44 51.0 °F 47.0 °F 30.1 in Calm     86% 0.000 in 0.00 W/m2
02:49 51.0 °F 47.0 °F 30.1 in Calm     86% 0.000 in 0.00 W/m2
02:54 51.0 °F 47.0 °F 30.1 in Calm     86% 0.000 in 0.00 W/m2
02:59 51.0 °F 47.0 °F 30.1 in Calm     87% 0.000 in 0.00 W/m2
03:04 51.0 °F 47.0 °F 30.1 in Calm     87% 0.000 in 0.00 W/m2
03:09 50.0 °F 47.0 °F 30.1 in SSE 1 mph 1 mph 87% 0.000 in 0.00 W/m2
03:14 50.0 °F 47.0 °F 30.1 in SSE 2 mph 2 mph 87% 0.000 in 0.00 W/m2
03:19 50.0 °F 46.0 °F 30.1 in SSE 1 mph 2 mph 87% 0.000 in 0.00 W/m2
03:24 50.0 °F 46.0 °F 30.1 in SSE 1 mph 1 mph 87% 0.000 in 0.00 W/m2
03:29 50.0 °F 46.0 °F 30.1 in Calm     87% 0.000 in 0.00 W/m2
03:34 50.0 °F 46.0 °F 30.1 in SSE 1 mph 1 mph 87% 0.000 in 0.00 W/m2
03:39 50.0 °F 46.0 °F 30.1 in SSE 1 mph 1 mph 87% 0.000 in 0.00 W/m2
03:44 50.0 °F 46.0 °F 30.1 in SSE 2 mph 2 mph 87% 0.000 in 0.00 W/m2
03:49 50.0 °F 46.0 °F 30.1 in SSE 1 mph 2 mph 87% 0.000 in 0.00 W/m2
03:54 50.0 °F 46.0 °F 30.1 in SSE 1 mph 1 mph 87% 0.000 in 0.00 W/m2
03:59 49.0 °F 46.0 °F 30.1 in Calm     87% 0.000 in 0.00 W/m2
04:04 49.0 °F 46.0 °F 30.1 in Calm     87% 0.000 in 0.00 W/m2
04:09 49.0 °F 46.0 °F 30.1 in Calm     87% 0.000 in 0.00 W/m2
04:14 49.0 °F 45.0 °F 30.1 in Calm     87% 0.000 in 0.00 W/m2
04:19 49.0 °F 45.0 °F 30.1 in Calm     87% 0.000 in 0.00 W/m2
04:24 49.0 °F 45.0 °F 30.1 in Calm     87% 0.000 in 0.00 W/m2
04:29 49.0 °F 45.0 °F 30.1 in Calm   1 mph 87% 0.000 in 0.00 W/m2
04:34 49.0 °F 46.0 °F 30.1 in Calm   1 mph 88% 0.000 in 0.00 W/m2
04:39 49.0 °F 45.0 °F 30.1 in Calm     88% 0.000 in 0.00 W/m2
04:44 49.0 °F 45.0 °F 30.1 in SSE 1 mph 1 mph 88% 0.000 in 0.00 W/m2
04:49 49.0 °F 45.0 °F 30.1 in SSE 1 mph 1 mph 88% 0.000 in 0.00 W/m2
04:54 49.0 °F 45.0 °F 30.1 in Calm   1 mph 88% 0.000 in 0.00 W/m2
04:59 49.0 °F 45.0 °F 30.1 in SSE 1 mph 1 mph 88% 0.000 in 0.00 W/m2
05:04 49.0 °F 45.0 °F 30.1 in Calm     88% 0.000 in 0.00 W/m2
05:09 49.0 °F 45.0 °F 30.1 in Calm     88% 0.000 in 0.00 W/m2
05:14 49.0 °F 45.0 °F 30.1 in Calm     88% 0.000 in 0.00 W/m2
05:19 48.0 °F 45.0 °F 30.1 in SSE 1 mph 1 mph 88% 0.000 in 0.00 W/m2
05:24 48.0 °F 45.0 °F 30.1 in SSE 1 mph 1 mph 88% 0.000 in 0.00 W/m2
05:29 48.0 °F 45.0 °F 30.1 in Calm   1 mph 88% 0.000 in 0.00 W/m2
05:34 48.0 °F 45.0 °F 30.1 in SSE 1 mph 1 mph 88% 0.000 in 0.00 W/m2
05:39 48.0 °F 45.0 °F 30.1 in SSE 1 mph 1 mph 88% 0.000 in 0.00 W/m2
05:44 48.0 °F 45.0 °F 30.1 in SSE 2 mph 2 mph 88% 0.000 in 0.00 W/m2
05:49 48.0 °F 45.0 °F 30.1 in SSE 1 mph 1 mph 88% 0.000 in 0.00 W/m2
05:54 48.0 °F 45.0 °F 30.1 in SSE 1 mph 1 mph 88% 0.000 in 0.00 W/m2
05:59 48.0 °F 45.0 °F 30.1 in SSE 2 mph 2 mph 88% 0.000 in 0.00 W/m2
06:04 48.0 °F 45.0 °F 30.1 in SSE 2 mph 2 mph 89% 0.000 in 0.00 W/m2
06:09 49.0 °F 46.0 °F 30.1 in SSE 4 mph 5 mph 89% 0.000 in 0.00 W/m2
06:14 49.0 °F 46.0 °F 30.1 in North 6 mph 6 mph 89% 0.000 in 0.00 W/m2
06:19 50.0 °F 47.0 °F 30.1 in North 6 mph 8 mph 89% 0.000 in 0.00 W/m2
06:24 50.0 °F 48.0 °F 30.1 in NNW 10 mph 10 mph 90% 0.000 in 0.00 W/m2
06:29 51.0 °F 48.0 °F 30.1 in North 7 mph 8 mph 90% 0.000 in 0.00 W/m2
06:34 51.0 °F 48.0 °F 30.1 in NNW 9 mph 10 mph 90% 0.000 in 0.00 W/m2
06:39 51.0 °F 48.0 °F 30.1 in North 9 mph 10 mph 90% 0.000 in 0.00 W/m2
06:44 51.0 °F 49.0 °F 30.1 in North 10 mph 10 mph 90% 0.000 in 0.00 W/m2
06:49 52.0 °F 49.0 °F 30.1 in NNE 6 mph 8 mph 90% 0.000 in 0.00 W/m2
06:54 52.0 °F 49.0 °F 30.1 in North 4 mph 6 mph 90% 0.000 in 0.00 W/m2
06:59 52.0 °F 49.0 °F 30.1 in NNW 4 mph 4 mph 90% 0.000 in 0.00 W/m2
07:04 52.0 °F 49.0 °F 30.2 in North 3 mph 3 mph 90% 0.000 in 0.00 W/m2
07:09 52.0 °F 49.0 °F 30.2 in North 3 mph 4 mph 90% 0.000 in 0.00 W/m2
07:14 52.0 °F 49.0 °F 30.2 in North 4 mph 4 mph 90% 0.000 in 0.00 W/m2
07:19 52.0 °F 50.0 °F 30.2 in NNE 2 mph 3 mph 90% 0.000 in 0.00 W/m2
07:24 52.0 °F 50.0 °F 30.2 in NNE 2 mph 2 mph 90% 0.000 in 0.00 W/m2
07:29 52.0 °F 50.0 °F 30.2 in ENE 2 mph 3 mph 90% 0.000 in 0.00 W/m2
07:34 53.0 °F 50.0 °F 30.2 in ESE 1 mph 1 mph 90% 0.000 in 12.00 W/m2
07:39 53.0 °F 50.0 °F 30.2 in ESE 2 mph 2 mph 90% 0.000 in 21.00 W/m2
07:44 53.0 °F 50.0 °F 30.2 in East 1 mph 2 mph 90% 0.000 in 21.00 W/m2
07:49 53.0 °F 50.0 °F 30.2 in East 2 mph 2 mph 90% 0.000 in 12.00 W/m2
07:54 53.0 °F 50.0 °F 30.2 in ENE 3 mph 3 mph 90% 0.000 in 7.00 W/m2
07:59 53.0 °F 51.0 °F 30.2 in NE 3 mph 3 mph 91% 0.000 in 25.00 W/m2
08:04 53.0 °F 51.0 °F 30.2 in NNE 4 mph 4 mph 91% 0.000 in 30.00 W/m2
08:09 53.0 °F 51.0 °F 30.2 in NNE 3 mph 4 mph 91% 0.000 in 49.00 W/m2
08:14 54.0 °F 51.0 °F 30.2 in NE 2 mph 4 mph 91% 0.000 in 49.00 W/m2
08:19 54.0 °F 51.0 °F 30.2 in ENE 3 mph 4 mph 91% 0.000 in 44.00 W/m2
08:24 54.0 °F 51.0 °F 30.2 in NE 4 mph 4 mph 91% 0.000 in 37.00 W/m2
08:29 54.0 °F 51.0 °F 30.2 in North 3 mph 4 mph 91% 0.010 in 32.00 W/m2
08:34 54.0 °F 51.0 °F 30.2 in North 2 mph 3 mph 91% 0.010 in 42.00 W/m2
08:39 54.0 °F 52.0 °F 30.2 in East 2 mph 2 mph 91% 0.010 in 42.00 W/m2
08:44 54.0 °F 52.0 °F 30.2 in SE 2 mph 3 mph 91% 0.010 in 90.00 W/m2
08:49 54.0 °F 52.0 °F 30.2 in NNE 4 mph 4 mph 91% 0.020 in 132.00 W/m2
08:54 55.0 °F 52.0 °F 30.2 in ESE 4 mph 4 mph 91% 0.020 in 183.00 W/m2
08:59 55.0 °F 53.0 °F 30.2 in SE 5 mph 7 mph 91% 0.020 in 199.00 W/m2
09:04 55.0 °F 53.0 °F 30.2 in SE 5 mph 5 mph 91% 0.030 in 330.00 W/m2
09:09 56.0 °F 53.0 °F 30.2 in ESE 3 mph 5 mph 91% 0.030 in 199.00 W/m2
09:14 56.0 °F 53.0 °F 30.2 in North 8 mph 8 mph 91% 0.030 in 90.00 W/m2
09:19 56.0 °F 53.0 °F 30.2 in North 11 mph 14 mph 91% 0.030 in 40.00 W/m2
09:24 56.0 °F 53.0 °F 30.2 in North 12 mph 14 mph 91% 0.040 in 47.00 W/m2
09:29 56.0 °F 53.0 °F 30.2 in NNW 13 mph 13 mph 91% 0.040 in 76.00 W/m2
09:34 56.0 °F 53.0 °F 30.2 in NW 12 mph 13 mph 91% 0.030 in 62.00 W/m2
09:39 55.0 °F 53.0 °F 30.2 in WNW 9 mph 12 mph 91% 0.030 in 40.00 W/m2
09:44 55.0 °F 53.0 °F 30.2 in NW 8 mph 10 mph 91% 0.040 in 39.00 W/m2
09:49 55.0 °F 53.0 °F 30.2 in NNW 11 mph 11 mph 91% 0.040 in 79.00 W/m2
09:54 55.0 °F 52.0 °F 30.2 in NNW 12 mph 12 mph 91% 0.030 in 90.00 W/m2
09:59 55.0 °F 52.0 °F 30.2 in NNW 15 mph 15 mph 91% 0.030 in 90.00 W/m2
10:04 54.0 °F 52.0 °F 30.2 in NNW 16 mph 16 mph 91% 0.040 in 100.00 W/m2
10:09 54.0 °F 52.0 °F 30.2 in NNW 14 mph 14 mph 91% 0.030 in 171.00 W/m2
10:14 54.0 °F 51.0 °F 30.2 in North 12 mph 15 mph 91% 0.030 in 216.00 W/m2
10:19 53.0 °F 51.0 °F 30.3 in North 17 mph 17 mph 91% 0.030 in 295.00 W/m2
10:24 53.0 °F 51.0 °F 30.3 in NNW 17 mph 17 mph 91% 0.030 in 292.00 W/m2
10:29 53.0 °F 51.0 °F 30.3 in North 15 mph 17 mph 91% 0.030 in 292.00 W/m2
10:34 54.0 °F 51.0 °F 30.3 in North 17 mph 17 mph 91% 0.030 in 383.00 W/m2
10:39 54.0 °F 51.0 °F 30.3 in North 19 mph 19 mph 90% 0.030 in 234.00 W/m2
10:44 53.0 °F 51.0 °F 30.3 in North 18 mph 18 mph 90% 0.030 in 186.00 W/m2
10:49 53.0 °F 50.0 °F 30.3 in North 20 mph 21 mph 89% 0.030 in 192.00 W/m2
10:54 53.0 °F 50.0 °F 30.3 in North 18 mph 18 mph 89% 0.030 in 225.00 W/m2
10:59 53.0 °F 50.0 °F 30.3 in North 21 mph 21 mph 88% 0.030 in 250.00 W/m2
11:04 53.0 °F 50.0 °F 30.3 in North 21 mph 21 mph 88% 0.030 in 766.00 W/m2
11:09 53.0 °F 50.0 °F 30.3 in North 22 mph 22 mph 87% 0.020 in 766.00 W/m2
11:14 55.0 °F 50.0 °F 30.3 in North 24 mph 24 mph 85% 0.030 in 786.00 W/m2
11:19 55.0 °F 49.0 °F 30.3 in North 20 mph 23 mph 82% 0.030 in 851.00 W/m2
11:24 55.0 °F 49.0 °F 30.3 in NNE 19 mph 23 mph 79% 0.030 in 687.00 W/m2
11:29 56.0 °F 49.0 °F 30.3 in North 20 mph 23 mph 77% 0.020 in 592.00 W/m2
11:34 56.0 °F 49.0 °F 30.3 in North 18 mph 20 mph 77% 0.020 in 497.00 W/m2
11:39 56.0 °F 48.0 °F 30.3 in North 16 mph 18 mph 75% 0.020 in 424.00 W/m2
11:44 56.0 °F 48.0 °F 30.3 in North 20 mph 20 mph 75% 0.030 in 872.00 W/m2
11:49 57.0 °F 48.0 °F 30.3 in North 19 mph 21 mph 73% 0.030 in 953.00 W/m2
11:54 57.0 °F 48.0 °F 30.3 in North 24 mph 26 mph 73% 0.020 in 953.00 W/m2
11:59 56.0 °F 47.0 °F 30.3 in North 18 mph 23 mph 72% 0.020 in 490.00 W/m2
12:04 56.0 °F 47.0 °F 30.3 in NNE 25 mph 25 mph 72% 0.020 in 362.00 W/m2
12:09 56.0 °F 47.0 °F 30.3 in North 23 mph 24 mph 72% 0.020 in 359.00 W/m2
12:14 55.0 °F 46.0 °F 30.3 in NNE 17 mph 18 mph 72% 0.020 in 364.00 W/m2
12:19 55.0 °F 46.0 °F 30.3 in North 17 mph 17 mph 72% 0.020 in 192.00 W/m2
12:24 55.0 °F 46.0 °F 30.3 in North 22 mph 22 mph 72% 0.020 in 172.00 W/m2
12:29 55.0 °F 46.0 °F 30.3 in North 24 mph 24 mph 73% 0.020 in 155.00 W/m2
12:34 54.0 °F 46.0 °F 30.3 in North 20 mph 20 mph 73% 0.020 in 139.00 W/m2
12:39 54.0 °F 45.0 °F 30.3 in North 17 mph 21 mph 74% 0.020 in 105.00 W/m2
12:44 53.0 °F 45.0 °F 30.3 in North 20 mph 24 mph 73% 0.020 in 83.00 W/m2
12:49 53.0 °F 45.0 °F 30.3 in NNW 22 mph 24 mph 74% 0.010 in 90.00 W/m2
12:54 53.0 °F 44.0 °F 30.3 in North 17 mph 22 mph 74% 0.010 in 97.00 W/m2
12:59 52.0 °F 44.0 °F 30.3 in North 18 mph 19 mph 74% 0.010 in 105.00 W/m2
13:04 52.0 °F 44.0 °F 30.3 in North 26 mph 26 mph 74% 0.010 in 97.00 W/m2
13:09 52.0 °F 44.0 °F 30.3 in North 19 mph 20 mph 74% 0.010 in 69.00 W/m2
13:14 52.0 °F 44.0 °F 30.3 in NNW 21 mph 23 mph 74% 0.010 in 53.00 W/m2
13:19 52.0 °F 44.0 °F 30.3 in NNW 21 mph 23 mph 74% 0.020 in 54.00 W/m2
13:24 51.0 °F 44.0 °F 30.3 in NNW 15 mph 15 mph 74% 0.010 in 54.00 W/m2
13:29 51.0 °F 43.0 °F 30.3 in NNW 21 mph 21 mph 74% 0.010 in 44.00 W/m2
13:34 51.0 °F 43.0 °F 30.3 in NNW 22 mph 30 mph 74% 0.010 in 39.00 W/m2
13:39 50.0 °F 42.0 °F 30.3 in North 19 mph 30 mph 75% 0.010 in 39.00 W/m2
13:44 50.0 °F 42.0 °F 30.3 in NNW 25 mph 26 mph 75% 0.010 in 42.00 W/m2
13:49 49.0 °F 41.0 °F 30.3 in NNW 21 mph 23 mph 75% 0.010 in 49.00 W/m2
13:54 49.0 °F 41.0 °F 30.3 in North 21 mph 23 mph 76% 0.010 in 74.00 W/m2
13:59 49.0 °F 41.0 °F 30.3 in North 23 mph 23 mph 75% 0.010 in 77.00 W/m2
14:04 49.0 °F 41.0 °F 30.3 in North 20 mph 25 mph 75% 0.010 in 97.00 W/m2
14:09 49.0 °F 41.0 °F 30.3 in North 22 mph 26 mph 75% 0.010 in 139.00 W/m2
14:14 49.0 °F 41.0 °F 30.3 in North 26 mph 26 mph 74% 0.010 in 144.00 W/m2
14:19 49.0 °F 41.0 °F 30.3 in North 17 mph 21 mph 74% 0.010 in 118.00 W/m2
14:24 49.0 °F 41.0 °F 30.3 in North 24 mph 24 mph 74% 0.000 in 111.00 W/m2
14:29 49.0 °F 41.0 °F 30.3 in North 19 mph 24 mph 74% 0.000 in 62.00 W/m2
14:34 49.0 °F 41.0 °F 30.3 in NNW 23 mph 23 mph 75% 0.000 in 56.00 W/m2
14:39 48.0 °F 41.0 °F 30.3 in NNW 21 mph 21 mph 76% 0.000 in 56.00 W/m2
14:44 48.0 °F 41.0 °F 30.3 in North 24 mph 27 mph 76% 0.000 in 44.00 W/m2
14:49 47.0 °F 40.0 °F 30.3 in NNW 21 mph 25 mph 76% 0.000 in 49.00 W/m2
14:54 47.0 °F 40.0 °F 30.3 in NNW 20 mph 23 mph 77% 0.000 in 47.00 W/m2
14:59 47.0 °F 40.0 °F 30.3 in NNW 17 mph 23 mph 77% 0.000 in 39.00 W/m2
15:04 47.0 °F 40.0 °F 30.4 in NNW 22 mph 22 mph 77% 0.000 in 40.00 W/m2
15:09 46.0 °F 40.0 °F 30.4 in NNW 22 mph 23 mph 77% 0.000 in 46.00 W/m2
15:14 46.0 °F 39.0 °F 30.4 in NNW 20 mph 23 mph 78% 0.000 in 46.00 W/m2
15:19 46.0 °F 39.0 °F 30.4 in NNW 19 mph 22 mph 78% 0.000 in 42.00 W/m2
15:24 46.0 °F 39.0 °F 30.4 in North 23 mph 24 mph 77% 0.000 in 120.00 W/m2
15:29 45.0 °F 39.0 °F 30.4 in NNW 18 mph 21 mph 77% 0.000 in 139.00 W/m2
15:34 45.0 °F 39.0 °F 30.4 in North 24 mph 24 mph 77% 0.000 in 128.00 W/m2
15:39 45.0 °F 38.0 °F 30.4 in North 24 mph 26 mph 76% 0.000 in 111.00 W/m2
15:44 46.0 °F 38.0 °F 30.4 in North 21 mph 26 mph 75% 0.000 in 209.00 W/m2
15:49 46.0 °F 38.0 °F 30.4 in North 19 mph 22 mph 75% 0.000 in 241.00 W/m2
15:54 46.0 °F 38.0 °F 30.4 in North 20 mph 21 mph 75% 0.000 in 216.00 W/m2
15:59 46.0 °F 38.0 °F 30.4 in North 18 mph 23 mph 74% 0.000 in 171.00 W/m2
16:04 46.0 °F 38.0 °F 30.4 in North 18 mph 22 mph 73% 0.000 in 79.00 W/m2
16:09 46.0 °F 38.0 °F 30.4 in North 23 mph 23 mph 73% 0.000 in 65.00 W/m2
16:14 46.0 °F 38.0 °F 30.4 in North 22 mph 22 mph 73% 0.000 in 100.00 W/m2
16:19 46.0 °F 38.0 °F 30.4 in NNE 20 mph 22 mph 73% 0.000 in 128.00 W/m2
16:24 46.0 °F 38.0 °F 30.4 in North 21 mph 21 mph 73% 0.000 in 111.00 W/m2
16:29 46.0 °F 38.0 °F 30.4 in North 22 mph 24 mph 73% 0.000 in 104.00 W/m2
16:34 46.0 °F 38.0 °F 30.4 in North 18 mph 24 mph 73% 0.000 in 91.00 W/m2
16:39 46.0 °F 38.0 °F 30.4 in NNE 23 mph 25 mph 73% 0.000 in 74.00 W/m2
16:44 46.0 °F 38.0 °F 30.4 in NNE 19 mph 20 mph 74% 0.000 in 76.00 W/m2
16:49 46.0 °F 38.0 °F 30.4 in North 19 mph 20 mph 74% 0.000 in 74.00 W/m2
16:54 46.0 °F 38.0 °F 30.4 in North 16 mph 17 mph 74% 0.000 in 58.00 W/m2
16:59 46.0 °F 38.0 °F 30.4 in North 15 mph 16 mph 74% 0.000 in 51.00 W/m2
17:04 46.0 °F 38.0 °F 30.4 in North 18 mph 19 mph 74% 0.000 in 58.00 W/m2
17:09 46.0 °F 38.0 °F 30.4 in North 15 mph 15 mph 74% 0.000 in 155.00 W/m2
17:14 46.0 °F 38.0 °F 30.4 in North 18 mph 18 mph 74% 0.000 in 186.00 W/m2
17:19 46.0 °F 38.0 °F 30.4 in North 14 mph 18 mph 74% 0.000 in 160.00 W/m2
17:24 46.0 °F 38.0 °F 30.4 in NNW 19 mph 19 mph 74% 0.000 in 114.00 W/m2
17:29 46.0 °F 38.0 °F 30.4 in North 15 mph 15 mph 74% 0.000 in 90.00 W/m2
17:34 46.0 °F 38.0 °F 30.4 in NNW 16 mph 16 mph 74% 0.000 in 69.00 W/m2
17:39 46.0 °F 38.0 °F 30.4 in North 17 mph 17 mph 74% 0.000 in 39.00 W/m2
17:44 45.0 °F 38.0 °F 30.4 in North 19 mph 19 mph 75% 0.000 in 33.00 W/m2
17:49 45.0 °F 38.0 °F 30.4 in North 19 mph 20 mph 75% 0.000 in 19.00 W/m2
17:54 45.0 °F 37.0 °F 30.4 in North 14 mph 19 mph 76% 0.000 in 16.00 W/m2
17:59 44.0 °F 37.0 °F 30.4 in North 15 mph 18 mph 76% 0.000 in 14.00 W/m2
18:04 44.0 °F 37.0 °F 30.4 in North 13 mph 16 mph 76% 0.000 in 9.00 W/m2
18:09 44.0 °F 37.0 °F 30.4 in North 12 mph 17 mph 77% 0.000 in 5.00 W/m2
18:14 44.0 °F 37.0 °F 30.4 in North 10 mph 12 mph 77% 0.000 in 0.00 W/m2
18:19 44.0 °F 37.0 °F 30.4 in NNW 13 mph 14 mph 77% 0.000 in 0.00 W/m2
18:24 44.0 °F 37.0 °F 30.4 in NNW 13 mph 13 mph 78% 0.000 in 0.00 W/m2
18:29 44.0 °F 37.0 °F 30.4 in North 12 mph 13 mph 78% 0.000 in 0.00 W/m2
18:34 44.0 °F 37.0 °F 30.4 in NNW 9 mph 10 mph 79% 0.000 in 0.00 W/m2
18:39 43.0 °F 37.0 °F 30.4 in NNW 11 mph 14 mph 79% 0.000 in 0.00 W/m2
18:44 43.0 °F 37.0 °F 30.4 in NNW 14 mph 14 mph 79% 0.000 in 0.00 W/m2
18:49 43.0 °F 37.0 °F 30.4 in NNW 11 mph 11 mph 79% 0.000 in 0.00 W/m2
18:54 43.0 °F 37.0 °F 30.4 in NNW 13 mph 13 mph 79% 0.000 in 0.00 W/m2
18:59 43.0 °F 37.0 °F 30.4 in NNW 13 mph 13 mph 79% 0.000 in 0.00 W/m2
19:04 43.0 °F 37.0 °F 30.4 in North 16 mph 16 mph 79% 0.000 in 0.00 W/m2
19:09 43.0 °F 37.0 °F 30.4 in North 11 mph 12 mph 79% 0.000 in 0.00 W/m2
19:14 43.0 °F 37.0 °F 30.4 in NNW 14 mph 14 mph 78% 0.000 in 0.00 W/m2
19:19 43.0 °F 36.0 °F 30.4 in NNW 16 mph 19 mph 78% 0.000 in 0.00 W/m2
19:24 43.0 °F 36.0 °F 30.4 in NNW 19 mph 20 mph 77% 0.000 in 0.00 W/m2
19:29 42.0 °F 36.0 °F 30.4 in NNW 18 mph 20 mph 77% 0.000 in 0.00 W/m2
19:34 42.0 °F 35.0 °F 30.4 in North 17 mph 17 mph 76% 0.000 in 0.00 W/m2
19:39 42.0 °F 35.0 °F 30.4 in North 14 mph 17 mph 76% 0.000 in 0.00 W/m2
19:44 42.0 °F 34.0 °F 30.4 in NNW 15 mph 15 mph 75% 0.000 in 0.00 W/m2
19:49 42.0 °F 35.0 °F 30.5 in North 11 mph 15 mph 76% 0.000 in 0.00 W/m2
19:54 42.0 °F 35.0 °F 30.4 in NNW 16 mph 16 mph 76% 0.000 in 0.00 W/m2
19:59 42.0 °F 34.0 °F 30.5 in North 11 mph 12 mph 75% 0.000 in 0.00 W/m2
20:04 42.0 °F 34.0 °F 30.5 in NNW 12 mph 14 mph 75% 0.000 in 0.00 W/m2
20:09 41.0 °F 34.0 °F 30.5 in North 9 mph 10 mph 75% 0.000 in 0.00 W/m2
20:14 41.0 °F 34.0 °F 30.5 in NNW 11 mph 12 mph 75% 0.000 in 0.00 W/m2
20:19 41.0 °F 34.0 °F 30.5 in NNW 12 mph 20 mph 74% 0.000 in 0.00 W/m2
20:24 41.0 °F 33.0 °F 30.5 in North 11 mph 20 mph 74% 0.000 in 0.00 W/m2
20:29 41.0 °F 33.0 °F 30.5 in NNW 13 mph 15 mph 73% 0.000 in 0.00 W/m2
20:34 41.0 °F 32.0 °F 30.5 in NNW 16 mph 16 mph 72% 0.000 in 0.00 W/m2
20:39 41.0 °F 32.0 °F 30.5 in NNW 14 mph 15 mph 70% 0.000 in 0.00 W/m2
20:44 41.0 °F 32.0 °F 30.5 in NNW 13 mph 15 mph 70% 0.000 in 0.00 W/m2
20:49 41.0 °F 31.0 °F 30.5 in NNW 12 mph 14 mph 68% 0.000 in 0.00 W/m2
20:54 41.0 °F 31.0 °F 30.5 in NNW 18 mph 18 mph 67% 0.000 in 0.00 W/m2
20:59 41.0 °F 30.0 °F 30.5 in NNW 17 mph 17 mph 65% 0.000 in 0.00 W/m2
21:04 41.0 °F 30.0 °F 30.5 in NNW 11 mph 13 mph 64% 0.000 in 0.00 W/m2
21:09 41.0 °F 30.0 °F 30.5 in NNW 15 mph 17 mph 64% 0.000 in 0.00 W/m2
21:14 41.0 °F 29.0 °F 30.5 in North 9 mph 14 mph 62% 0.000 in 0.00 W/m2
21:19 41.0 °F 28.0 °F 30.5 in North 14 mph 14 mph 62% 0.000 in 0.00 W/m2
21:24 40.0 °F 28.0 °F 30.5 in North 10 mph 11 mph 61% 0.000 in 0.00 W/m2
21:29 40.0 °F 28.0 °F 30.5 in North 10 mph 11 mph 61% 0.000 in 0.00 W/m2
21:34 40.0 °F 27.0 °F 30.5 in NNW 8 mph 11 mph 60% 0.000 in 0.00 W/m2
21:39 40.0 °F 27.0 °F 30.5 in NNW 9 mph 11 mph 60% 0.000 in 0.00 W/m2
21:44 40.0 °F 27.0 °F 30.5 in NNW 11 mph 11 mph 60% 0.000 in 0.00 W/m2
21:49 40.0 °F 27.0 °F 30.5 in NNW 6 mph 11 mph 60% 0.000 in 0.00 W/m2
21:54 40.0 °F 27.0 °F 30.5 in NNW 11 mph 11 mph 60% 0.000 in 0.00 W/m2
21:59 39.0 °F 27.0 °F 30.5 in North 10 mph 11 mph 60% 0.000 in 0.00 W/m2
22:04 39.0 °F 26.0 °F 30.5 in NNW 8 mph 10 mph 59% 0.000 in 0.00 W/m2
22:09 39.0 °F 26.0 °F 30.5 in North 7 mph 9 mph 59% 0.000 in 0.00 W/m2
22:14 39.0 °F 26.0 °F 30.5 in NNW 10 mph 10 mph 59% 0.000 in 0.00 W/m2
22:19 39.0 °F 26.0 °F 30.5 in North 6 mph 9 mph 59% 0.000 in 0.00 W/m2
22:24 39.0 °F 26.0 °F 30.5 in North 6 mph 6 mph 59% 0.000 in 0.00 W/m2
22:29 39.0 °F 26.0 °F 30.5 in North 5 mph 5 mph 59% 0.000 in 0.00 W/m2
22:34 39.0 °F 26.0 °F 30.5 in North 4 mph 4 mph 60% 0.000 in 0.00 W/m2
22:39 39.0 °F 26.0 °F 30.5 in North 4 mph 4 mph 60% 0.000 in 0.00 W/m2
22:44 38.0 °F 26.0 °F 30.5 in NNW 4 mph 5 mph 60% 0.000 in 0.00 W/m2
22:49 38.0 °F 26.0 °F 30.5 in North 4 mph 4 mph 61% 0.000 in 0.00 W/m2
22:54 38.0 °F 26.0 °F 30.5 in North 5 mph 5 mph 61% 0.000 in 0.00 W/m2
22:59 38.0 °F 26.0 °F 30.5 in North 4 mph 4 mph 61% 0.000 in 0.00 W/m2
23:04 38.0 °F 26.0 °F 30.5 in North 4 mph 5 mph 62% 0.000 in 0.00 W/m2
23:09 37.0 °F 25.0 °F 30.5 in North 4 mph 5 mph 62% 0.000 in 0.00 W/m2
23:14 37.0 °F 25.0 °F 30.5 in North 5 mph 5 mph 62% 0.000 in 0.00 W/m2
23:19 37.0 °F 25.0 °F 30.5 in North 5 mph 5 mph 62% 0.000 in 0.00 W/m2
23:24 37.0 °F 25.0 °F 30.5 in North 3 mph 4 mph 62% 0.000 in 0.00 W/m2
23:29 37.0 °F 25.0 °F 30.5 in NNE 4 mph 5 mph 62% 0.000 in 0.00 W/m2
23:34 37.0 °F 25.0 °F 30.5 in North 4 mph 4 mph 62% 0.000 in 0.00 W/m2
23:39 37.0 °F 25.0 °F 30.5 in North 5 mph 5 mph 62% 0.000 in 0.00 W/m2
23:44 37.0 °F 25.0 °F 30.5 in North 4 mph 4 mph 62% 0.000 in 0.00 W/m2
23:49 36.0 °F 25.0 °F 30.5 in North 5 mph 6 mph 62% 0.000 in 0.00 W/m2
23:54 36.0 °F 25.0 °F 30.5 in North 4 mph 5 mph 62% 0.000 in 0.00 W/m2
23:59 36.0 °F 24.0 °F 30.5 in North 6 mph 6 mph 61% 0.000 in 0.00 W/m2
Villages of Bridgestone, Spring, TX USA
Compliments of Weather Underground - 4 mb